LGKC

Kithira Island National Airport

Airport
ICAO code
LGKC
IATA Code
KIT
Summary
ICAO Region
EUR
ICAO Territory
Location

Kithira, Peloponnese

Serving
Kithira
Elevation
1045 ft
Coordinates
36° 16' 25" N , 23° 0' 59" E
KCC
Metar
LGKC 041150Z 20012KT 160V230 9999 FEW020 16/09 Q1014

Kithira Island National Airport "Alexandros Aristotelous Onassis" is an airport in Kithira, Greece.

Climatology

Warm mediterranean climate (Köppen climate classification Csa)

Runways

Designator Length Width Surface Rops
2/20 1461 30 ASP No/No

Airport map

Aerial View

SKYbrary Partners:

Safety knowledge contributed by: